Time;durP1;ratioP1;P1;durP2;ratioP2;P2;SDS_P1;SDS_P2;PMS_P1;PMS_P2;Temp;Humidity;BMP_temperature;BMP_pressure;BME280_temperature;BME280_humidity;BME280_pressure;Samples;Min_cycle;Max_cycle;Signal;HPM_P1;HPM_P2
2021/03/31 00:01:40;;;;;;;32.03;25.00;;;;;;;5.29;77.05;100022.28;2128108;83;21272;-79
2021/03/31 00:04:41;;;;;;;33.97;26.57;;;;;;;5.24;77.25;100028.92;2127809;83;21118;-79
2021/03/31 00:07:42;;;;;;;38.03;26.90;;;;;;;5.23;77.44;100023.67;2127385;83;21186;-79
2021/03/31 00:10:43;;;;;;;38.53;26.07;;;;;;;5.21;77.36;100024.00;2127964;83;21174;-79
2021/03/31 00:13:44;;;;;;;38.27;26.13;;;;;;;5.20;77.42;100026.06;2128250;83;21293;-80
2021/03/31 00:16:45;;;;;;;36.37;25.57;;;;;;;5.18;77.51;100028.98;2125845;83;21166;-79
2021/03/31 00:19:46;;;;;;;33.33;24.03;;;;;;;5.17;77.33;100026.80;2125787;83;21436;-79
2021/03/31 00:22:47;;;;;;;31.83;24.47;;;;;;;5.14;77.29;100025.34;2125270;83;21167;-79
2021/03/31 00:25:49;;;;;;;31.30;24.80;;;;;;;5.09;77.30;100028.98;2124507;84;21145;-79
2021/03/31 00:28:50;;;;;;;35.43;25.57;;;;;;;5.06;77.39;100032.71;2124947;83;21428;-79
2021/03/31 00:31:51;;;;;;;31.13;25.57;;;;;;;5.07;77.57;100029.31;2125783;83;21591;-80
2021/03/31 00:34:52;;;;;;;35.80;26.07;;;;;;;5.08;77.61;100031.09;2126035;83;21122;-79
2021/03/31 00:37:53;;;;;;;29.03;24.67;;;;;;;5.09;77.31;100023.81;2126780;83;21154;-79
2021/03/31 00:40:54;;;;;;;30.70;24.93;;;;;;;5.07;77.32;100024.54;2126704;83;21165;-79
2021/03/31 00:43:55;;;;;;;36.07;26.07;;;;;;;5.04;77.39;100020.09;2126892;83;21436;-79
2021/03/31 00:46:56;;;;;;;32.57;24.77;;;;;;;5.03;77.47;100026.08;2126959;83;21127;-80
2021/03/31 00:49:57;;;;;;;38.50;27.43;;;;;;;5.02;77.45;100014.36;2127174;83;21182;-79
2021/03/31 00:52:58;;;;;;;33.60;25.83;;;;;;;5.03;77.39;100013.55;2126763;83;21782;-79
2021/03/31 00:55:59;;;;;;;33.87;26.03;;;;;;;4.98;77.26;100013.30;2126309;83;21162;-79
2021/03/31 00:59:00;;;;;;;59.67;46.13;;;;;;;4.93;77.27;100012.17;2125450;83;21135;-79
2021/03/31 01:02:01;;;;;;;32.63;27.17;;;;;;;4.90;77.24;100012.02;2125486;83;21531;-79
2021/03/31 01:05:02;;;;;;;30.57;24.37;;;;;;;4.88;77.23;100016.63;2125399;83;21150;-79
2021/03/31 01:08:03;;;;;;;35.60;26.17;;;;;;;4.84;77.23;100010.80;2125844;83;21182;-80
2021/03/31 01:11:04;;;;;;;34.53;25.87;;;;;;;4.80;77.37;100005.47;2125680;83;21423;-80
2021/03/31 01:14:05;;;;;;;36.83;26.63;;;;;;;4.80;77.32;100011.05;2126661;83;21234;-79
2021/03/31 01:17:06;;;;;;;41.20;27.33;;;;;;;4.79;77.49;100009.27;2128774;83;21550;-80
2021/03/31 01:20:07;;;;;;;39.23;28.93;;;;;;;4.74;77.49;100011.61;2129433;83;21167;-79
2021/03/31 01:23:09;;;;;;;42.03;27.90;;;;;;;4.74;77.66;100014.59;2129706;83;21448;-79
2021/03/31 01:26:10;;;;;;;34.43;26.50;;;;;;;4.75;77.67;100011.20;2128432;83;21273;-79
2021/03/31 01:29:11;;;;;;;36.47;26.97;;;;;;;4.72;77.49;100001.98;2128040;83;21586;-79
2021/03/31 01:32:12;;;;;;;37.23;26.73;;;;;;;4.73;77.66;99997.30;2127891;83;21150;-79
2021/03/31 01:35:13;;;;;;;33.80;25.43;;;;;;;4.78;77.64;99999.32;2127753;83;21626;-79
2021/03/31 01:38:14;;;;;;;35.07;26.67;;;;;;;4.82;77.67;99996.49;2128259;83;21269;-79
2021/03/31 01:41:15;;;;;;;34.57;26.70;;;;;;;4.84;77.70;99994.88;2128272;83;21475;-79
2021/03/31 01:44:16;;;;;;;40.57;28.50;;;;;;;4.88;77.52;99999.41;2129267;83;21177;-77
2021/03/31 01:47:17;;;;;;;144.70;99.17;;;;;;;4.91;79.81;99996.09;2128577;83;21142;-77
2021/03/31 01:50:20;;;;;;;83.50;56.10;;;;;;;7.92;90.30;99987.38;2129369;83;21190;-80
2021/03/31 01:53:21;;;;;;;58.97;36.77;;;;;;;9.74;80.38;99982.93;2129788;83;21441;-80
2021/03/31 01:56:22;;;;;;;57.90;32.13;;;;;;;7.74;72.03;99974.49;2129454;83;21150;-79
2021/03/31 01:59:23;;;;;;;38.70;28.43;;;;;;;7.74;72.03;99974.49;2129992;83;21281;-81
2021/03/31 02:02:24;;;;;;;138.03;32.60;;;;;;;6.99;71.71;99973.02;2128918;83;21158;-80
2021/03/31 02:05:25;;;;;;;60.23;29.27;;;;;;;6.39;72.00;99980.68;2128912;83;21146;-79
2021/03/31 02:08:26;;;;;;;49.43;28.53;;;;;;;6.00;72.55;99978.77;2129242;83;21473;-79
2021/03/31 02:11:27;;;;;;;80.17;31.13;;;;;;;5.70;73.02;99975.15;2128877;84;21284;-81
2021/03/31 02:14:28;;;;;;;48.83;30.20;;;;;;;5.48;73.46;99974.02;2128525;83;21771;-80
2021/03/31 02:17:29;;;;;;;41.10;30.20;;;;;;;5.29;73.66;99972.20;2129627;83;21195;-79
2021/03/31 02:20:30;;;;;;;74.30;32.60;;;;;;;5.11;74.02;99973.02;2129736;83;21151;-78
2021/03/31 02:23:34;;;;;;;95.23;33.93;;;;;;;5.00;74.41;99968.98;2128738;83;21265;-79
2021/03/31 02:26:35;;;;;;;44.07;30.10;;;;;;;4.90;74.75;99965.45;2128990;84;21172;-80
2021/03/31 02:29:36;;;;;;;60.97;28.67;;;;;;;4.80;74.82;99963.19;2129948;83;21190;-79
2021/03/31 02:32:37;;;;;;;50.27;29.47;;;;;;;4.74;75.09;99963.75;2130533;83;21181;-79
2021/03/31 02:35:38;;;;;;;53.60;28.67;;;;;;;4.73;75.42;99958.09;2130865;84;21527;-80
2021/03/31 02:38:39;;;;;;;50.50;30.67;;;;;;;4.72;75.04;99959.31;2129968;83;21154;-79
2021/03/31 02:41:40;;;;;;;82.67;32.37;;;;;;;4.70;75.37;99958.34;2129088;83;21445;-79
2021/03/31 02:44:41;;;;;;;39.27;29.87;;;;;;;4.68;75.44;99963.84;2129080;83;21190;-80
2021/03/31 02:47:42;;;;;;;46.83;28.97;;;;;;;4.63;75.45;99962.70;2129395;83;21630;-80
2021/03/31 02:50:43;;;;;;;42.37;29.43;;;;;;;4.61;75.63;99961.73;2129648;83;21153;-79
2021/03/31 02:53:44;;;;;;;41.77;28.93;;;;;;;4.56;75.74;99964.48;2129330;83;21122;-80
2021/03/31 02:56:45;;;;;;;76.20;29.83;;;;;;;4.54;75.80;99957.94;2129991;83;21146;-80
2021/03/31 02:59:46;;;;;;;91.83;47.33;;;;;;;4.54;76.00;99957.94;2130232;83;21167;-78
2021/03/31 03:02:47;;;;;;;97.43;31.00;;;;;;;4.59;76.19;99955.19;2130485;83;21428;-79
2021/03/31 03:05:48;;;;;;;97.97;30.37;;;;;;;4.56;75.76;99956.32;2130289;83;21151;-79
2021/03/31 03:08:49;;;;;;;52.33;30.00;;;;;;;4.51;75.90;99955.19;2130573;83;21150;-79
2021/03/31 03:11:50;;;;;;;65.13;31.80;;;;;;;4.50;76.01;99956.00;2130755;83;21166;-80
2021/03/31 03:14:51;;;;;;;64.00;32.40;;;;;;;4.51;76.20;99947.84;2129412;83;21475;-80
2021/03/31 03:17:52;;;;;;;58.17;32.70;;;;;;;4.55;76.34;99953.66;2129235;83;21154;-79
2021/03/31 03:20:53;;;;;;;94.63;31.90;;;;;;;4.56;76.30;99956.32;2128885;83;21186;-79
2021/03/31 03:23:54;;;;;;;124.73;32.87;;;;;;;4.59;76.21;99956.89;2129011;83;21142;-79
2021/03/31 03:26:55;;;;;;;169.20;34.40;;;;;;;4.57;75.99;99952.04;2128288;83;21326;-79
2021/03/31 03:29:57;;;;;;;102.23;33.67;;;;;;;4.54;76.27;99951.88;2128110;83;21188;-80
2021/03/31 03:32:58;;;;;;;100.57;35.20;;;;;;;4.52;76.18;99944.44;2128382;83;21146;-78
2021/03/31 03:35:59;;;;;;;100.57;35.47;;;;;;;4.50;76.46;99952.12;2127267;83;21268;-79
2021/03/31 03:39:00;;;;;;;102.17;36.90;;;;;;;4.50;76.47;99949.53;2127203;83;21571;-79
2021/03/31 03:42:01;;;;;;;140.23;38.53;;;;;;;4.50;76.88;99952.52;2127659;84;21269;-80
2021/03/31 03:45:02;;;;;;;124.67;37.30;;;;;;;4.53;77.34;99959.15;2127216;83;21174;-79
2021/03/31 03:48:03;;;;;;;120.63;36.07;;;;;;;4.57;77.31;99958.50;2127262;84;21185;-79
2021/03/31 03:51:04;;;;;;;117.43;35.60;;;;;;;4.58;76.96;99962.87;2126228;83;21273;-79
2021/03/31 03:54:05;;;;;;;138.10;38.77;;;;;;;4.60;77.18;99966.02;2124766;83;21249;-79
2021/03/31 03:57:06;;;;;;;131.67;39.67;;;;;;;4.57;77.15;99957.20;2124818;83;21158;-83
2021/03/31 04:00:07;;;;;;;114.87;39.00;;;;;;;4.55;77.31;99958.83;2125856;83;21155;-83
2021/03/31 04:03:08;;;;;;;126.10;38.83;;;;;;;4.56;77.34;99955.43;2124623;83;21167;-79
2021/03/31 04:06:10;;;;;;;100.73;38.53;;;;;;;4.55;77.24;99960.12;2124939;83;21595;-79
2021/03/31 04:09:11;;;;;;;74.27;34.97;;;;;;;4.55;77.45;99964.88;2125066;83;21898;-79
2021/03/31 04:12:12;;;;;;;98.10;34.00;;;;;;;4.55;77.42;99954.95;2125101;83;21293;-80
2021/03/31 04:15:13;;;;;;;69.57;34.90;;;;;;;4.49;77.06;99955.52;2125204;83;21174;-79
2021/03/31 04:18:14;;;;;;;114.27;38.40;;;;;;;4.44;77.16;99959.14;2123904;83;21640;-81
2021/03/31 04:21:15;;;;;;;79.30;37.70;;;;;;;4.42;77.40;99958.17;2123419;83;21388;-79
2021/03/31 04:24:16;;;;;;;70.73;33.53;;;;;;;4.47;77.86;99956.72;2122995;83;21253;-80
2021/03/31 04:27:17;;;;;;;53.37;33.77;;;;;;;4.49;77.35;99959.39;2122896;83;21146;-80
2021/03/31 04:30:18;;;;;;;44.57;32.77;;;;;;;4.46;77.02;99962.70;2123523;83;21320;-80
2021/03/31 04:33:19;;;;;;;63.83;33.17;;;;;;;4.45;76.84;99958.73;2123189;83;21111;-80
2021/03/31 04:36:20;;;;;;;41.20;31.63;;;;;;;4.48;77.20;99954.63;2124095;83;21440;-79
2021/03/31 04:39:21;;;;;;;45.53;31.43;;;;;;;4.47;76.95;99942.91;2124373;83;21139;-80
2021/03/31 04:42:22;;;;;;;77.40;32.63;;;;;;;4.44;76.96;99953.97;2124443;83;21134;-80
2021/03/31 04:45:23;;;;;;;76.83;32.03;;;;;;;4.46;77.02;99947.19;2124508;83;21281;-82
2021/03/31 04:48:24;;;;;;;51.73;32.40;;;;;;;4.52;76.95;99951.80;2124754;83;21448;-80
2021/03/31 04:51:25;;;;;;;101.23;32.67;;;;;;;4.57;76.83;99949.45;2124811;83;21162;-80
2021/03/31 04:54:28;;;;;;;68.67;32.00;;;;;;;4.61;76.65;99952.69;2123559;83;21650;-80
2021/03/31 04:57:29;;;;;;;99.70;32.27;;;;;;;4.67;76.94;99955.19;2123580;83;21174;-80
2021/03/31 05:00:30;;;;;;;61.23;31.63;;;;;;;4.78;76.72;99953.16;2123264;83;21138;-78
2021/03/31 05:03:32;;;;;;;45.90;30.73;;;;;;;4.82;76.54;99939.98;2123587;83;21142;-79
2021/03/31 05:06:33;;;;;;;40.20;30.60;;;;;;;4.86;76.51;99936.75;2123116;84;21285;-82
2021/03/31 05:09:34;;;;;;;337.47;41.30;;;;;;;4.90;76.36;99933.10;2123401;83;21189;-81
2021/03/31 05:12:35;;;;;;;130.53;36.10;;;;;;;5.01;76.54;99934.54;2123514;83;21158;-79
2021/03/31 05:15:36;;;;;;;47.67;29.37;;;;;;;5.09;76.76;99934.52;2122547;83;21297;-79
2021/03/31 05:18:37;;;;;;;38.17;30.67;;;;;;;5.28;76.43;99944.55;2125139;83;21555;-79
2021/03/31 05:21:38;;;;;;;398.67;46.83;;;;;;;5.39;76.43;99935.20;2125566;83;21157;-79
2021/03/31 05:24:39;;;;;;;48.10;30.10;;;;;;;5.54;76.49;99946.72;2124925;83;21224;-79
2021/03/31 05:27:40;;;;;;;44.43;28.43;;;;;;;5.68;76.47;99939.22;2124618;84;21285;-80
2021/03/31 05:30:41;;;;;;;33.33;28.40;;;;;;;5.84;76.43;99943.43;2124893;83;21118;-79
2021/03/31 05:33:42;;;;;;;34.80;28.90;;;;;;;6.02;76.47;99935.67;2124578;84;21618;-80
2021/03/31 05:36:43;;;;;;;49.03;29.80;;;;;;;6.21;76.45;99942.23;2125280;83;21212;-79
2021/03/31 05:39:44;;;;;;;61.43;31.43;;;;;;;6.44;76.34;99946.28;2125707;83;21289;-76
2021/03/31 05:42:45;;;;;;;38.57;29.83;;;;;;;6.65;76.39;99947.25;2125961;83;21276;-75
2021/03/31 05:45:46;;;;;;;37.97;29.27;;;;;;;6.86;76.54;99947.31;2125624;83;21325;-76
2021/03/31 05:48:47;;;;;;;64.67;33.17;;;;;;;7.08;76.18;99950.05;2125544;83;21305;-80
2021/03/31 05:51:49;;;;;;;36.23;28.87;;;;;;;7.30;76.16;99943.66;2126144;83;21460;-78
2021/03/31 05:54:50;;;;;;;50.83;29.37;;;;;;;7.53;76.01;99944.61;2124716;83;21146;-81
2021/03/31 05:57:52;;;;;;;61.53;29.63;;;;;;;7.74;75.87;99939.41;2125530;84;21154;-79
2021/03/31 06:00:54;;;;;;;45.47;30.13;;;;;;;7.93;75.58;99930.66;2125614;83;21265;-78
2021/03/31 06:03:56;;;;;;;37.47;31.17;;;;;;;8.18;75.41;99938.59;2124310;83;21491;-79
2021/03/31 06:06:57;;;;;;;98.73;38.00;;;;;;;8.44;75.23;99936.12;2125290;84;21261;-81
2021/03/31 06:09:58;;;;;;;33.90;28.47;;;;;;;8.60;75.17;99934.56;2125951;83;21174;-80
2021/03/31 06:13:00;;;;;;;35.73;29.10;;;;;;;8.83;75.11;99931.11;2126261;83;21603;-79
2021/03/31 06:16:01;;;;;;;33.30;28.73;;;;;;;9.08;74.74;99933.28;2125493;83;21982;-80
2021/03/31 06:19:02;;;;;;;37.13;31.17;;;;;;;9.31;74.50;99934.95;2125248;83;21436;-80
2021/03/31 06:22:08;;;;;;;38.10;30.13;;;;;;;9.56;74.57;99931.06;2125037;83;21301;-80
2021/03/31 06:25:11;;;;;;;32.67;28.97;;;;;;;9.83;74.41;99931.08;2124658;84;21158;-81
2021/03/31 06:28:12;;;;;;;32.33;28.83;;;;;;;10.09;73.87;99920.16;2125655;83;21170;-81
2021/03/31 06:31:13;;;;;;;43.73;32.57;;;;;;;10.38;73.87;99923.67;2125363;83;21288;-79
2021/03/31 06:34:15;;;;;;;39.40;30.40;;;;;;;10.64;73.76;99920.55;2125423;83;21147;-79
2021/03/31 06:37:16;;;;;;;38.02;30.37;;;;;;;10.87;73.43;99920.31;2126108;83;21268;-79
2021/03/31 06:40:17;;;;;;;36.38;31.07;;;;;;;11.11;73.31;99923.16;2125930;84;21138;-80
2021/03/31 06:43:21;;;;;;;41.98;32.23;;;;;;;11.41;73.31;99915.69;2125959;83;21265;-79
2021/03/31 06:46:24;;;;;;;39.45;32.42;;;;;;;11.68;73.01;99912.88;2124471;83;21281;-79
2021/03/31 06:49:24;;;;;;;42.43;34.30;;;;;;;11.96;72.50;99904.87;2125125;83;21308;-79
2021/03/31 06:52:25;;;;;;;46.80;34.50;;;;;;;12.23;72.01;99907.68;2125923;83;21241;-79
2021/03/31 06:55:26;;;;;;;48.90;33.90;;;;;;;12.49;71.80;99894.72;2125161;83;21269;-80
2021/03/31 06:58:30;;;;;;;50.20;36.85;;;;;;;12.77;71.61;99897.47;2125794;83;21119;-79
2021/03/31 07:01:32;;;;;;;48.52;34.23;;;;;;;13.07;71.18;99897.20;2126623;83;21245;-78
2021/03/31 07:04:35;;;;;;;47.55;33.92;;;;;;;13.28;70.90;99892.38;2126487;83;21249;-79
2021/03/31 07:07:36;;;;;;;43.00;31.93;;;;;;;13.46;70.32;99890.92;2126515;83;21428;-79
2021/03/31 07:10:37;;;;;;;45.83;33.45;;;;;;;13.59;70.05;99885.91;2125713;83;21307;-79
2021/03/31 07:13:38;;;;;;;48.73;33.73;;;;;;;13.85;70.00;99880.18;2126461;83;21189;-79
2021/03/31 07:16:40;;;;;;;51.02;33.98;;;;;;;14.20;69.82;99876.78;2125520;83;21301;-80
2021/03/31 07:19:41;;;;;;;49.63;34.45;;;;;;;14.46;69.05;99876.73;2126938;83;21280;-78
2021/03/31 07:22:42;;;;;;;49.98;34.70;;;;;;;14.70;68.54;99877.88;2125885;83;21272;-79
2021/03/31 07:25:43;;;;;;;47.25;36.50;;;;;;;14.91;68.35;99883.41;2126141;84;21280;-80
2021/03/31 07:28:44;;;;;;;66.85;38.70;;;;;;;15.21;67.81;99885.05;2126505;83;21166;-77
2021/03/31 07:31:45;;;;;;;46.48;35.98;;;;;;;15.52;67.54;99886.20;2126431;83;21250;-80
2021/03/31 07:34:48;;;;;;;66.72;36.15;;;;;;;15.85;66.92;99885.65;2127414;83;21111;-79
2021/03/31 07:37:49;;;;;;;50.10;35.35;;;;;;;16.06;66.30;99882.71;2126853;83;21151;-79
2021/03/31 07:40:51;;;;;;;74.20;46.15;;;;;;;16.29;65.69;99885.04;2125975;83;21253;-79
2021/03/31 07:43:52;;;;;;;72.97;46.18;;;;;;;16.49;65.24;99879.46;2125945;83;21277;-79
2021/03/31 07:46:53;;;;;;;60.45;39.78;;;;;;;16.68;64.78;99872.98;2125339;83;21274;-79
2021/03/31 07:49:54;;;;;;;49.38;35.78;;;;;;;16.91;64.59;99877.00;2125537;83;21174;-79
2021/03/31 07:52:55;;;;;;;103.40;39.85;;;;;;;17.07;63.89;99871.77;2124654;83;21254;-79
2021/03/31 07:55:56;;;;;;;50.73;36.75;;;;;;;17.21;63.74;99867.83;2124788;83;21293;-79
2021/03/31 07:58:57;;;;;;;58.23;35.35;;;;;;;17.38;63.45;99869.20;2125436;83;21261;-79
2021/03/31 08:01:58;;;;;;;52.67;34.90;;;;;;;17.52;62.74;99862.16;2124587;83;21260;-82
2021/03/31 08:04:59;;;;;;;46.20;33.10;;;;;;;17.66;62.17;99860.84;2125313;84;21293;-78
2021/03/31 08:08:01;;;;;;;37.38;28.98;;;;;;;17.79;62.20;99858.66;2124561;83;21811;-75
2021/03/31 08:11:02;;;;;;;37.98;28.27;;;;;;;18.01;61.59;99857.74;2125423;83;21257;-78
2021/03/31 08:14:03;;;;;;;258.02;37.40;;;;;;;18.13;61.24;99854.19;2125652;83;21139;-77
2021/03/31 08:17:06;;;;;;;35.43;27.10;;;;;;;18.36;60.74;99859.44;2125803;83;21309;-79
2021/03/31 08:20:07;;;;;;;37.48;30.75;;;;;;;18.48;59.41;99855.87;2127254;83;21284;-78
2021/03/31 08:23:08;;;;;;;41.05;29.65;;;;;;;18.52;58.63;99854.53;2127653;83;21255;-78
2021/03/31 08:26:09;;;;;;;42.15;30.43;;;;;;;18.68;59.10;99858.89;2125303;83;21239;-79
2021/03/31 08:29:10;;;;;;;60.12;29.07;;;;;;;18.91;58.79;99856.57;2124735;83;21666;-78
2021/03/31 08:32:14;;;;;;;47.23;26.33;;;;;;;19.08;58.32;99848.99;2125660;84;21257;-78
2021/03/31 08:35:15;;;;;;;28.57;22.98;;;;;;;19.31;57.49;99846.63;2124482;83;21269;-79
2021/03/31 08:38:16;;;;;;;35.60;23.45;;;;;;;19.39;55.40;99843.48;2125960;83;21265;-79
2021/03/31 08:41:18;;;;;;;33.28;21.37;;;;;;;19.21;55.14;99840.52;2125732;83;21820;-79
2021/03/31 08:44:21;;;;;;;33.42;24.23;;;;;;;19.29;54.80;99843.99;2126237;83;21110;-79
2021/03/31 08:47:22;;;;;;;37.17;22.67;;;;;;;19.45;54.68;99843.42;2126389;84;21162;-79
2021/03/31 08:50:24;;;;;;;27.73;21.07;;;;;;;19.58;54.56;99841.14;2127140;83;21324;-78
2021/03/31 08:53:27;;;;;;;29.30;21.50;;;;;;;19.54;54.12;99842.06;2126718;83;21268;-79
2021/03/31 08:56:28;;;;;;;27.93;22.13;;;;;;;19.72;54.53;99841.02;2127003;83;21273;-79
2021/03/31 08:59:29;;;;;;;27.87;22.15;;;;;;;19.93;52.75;99830.65;2126117;83;21130;-79
2021/03/31 09:02:31;;;;;;;28.40;22.85;;;;;;;20.10;54.01;99831.83;2126114;83;21150;-80
2021/03/31 09:05:32;;;;;;;32.35;21.52;;;;;;;20.29;53.66;99837.35;2127250;83;21150;-80
2021/03/31 09:08:33;;;;;;;105.07;27.55;;;;;;;20.48;53.31;99836.72;2126906;84;21288;-79
2021/03/31 09:11:34;;;;;;;30.30;21.95;;;;;;;20.58;52.31;99831.72;2126414;83;21142;-80
2021/03/31 09:14:35;;;;;;;26.80;18.48;;;;;;;20.60;51.86;99828.15;2126782;83;21263;-78
2021/03/31 09:17:37;;;;;;;33.10;20.82;;;;;;;20.58;51.18;99825.97;2126686;84;21157;-79
2021/03/31 09:20:38;;;;;;;32.83;21.97;;;;;;;20.56;51.50;99826.88;2126739;83;21258;-79
2021/03/31 09:23:39;;;;;;;33.60;21.50;;;;;;;20.36;51.30;99819.15;2125982;83;21111;-79
2021/03/31 09:26:40;;;;;;;34.58;21.12;;;;;;;20.41;51.58;99821.78;2125616;83;21131;-79
2021/03/31 09:29:43;;;;;;;28.95;21.45;;;;;;;20.63;52.01;99811.31;2125588;83;21313;-80
2021/03/31 09:32:50;;;;;;;22.70;16.70;;;;;;;20.74;51.25;99812.05;2126258;83;21244;-79
2021/03/31 09:35:48;;;;;;;;;;;;;;;20.67;47.93;99810.37;2128279;83;21293;-79
2021/03/31 09:38:49;;;;;;;21.85;16.85;;;;;;;20.55;49.96;99807.89;2125771;84;20507;-81
2021/03/31 09:41:50;;;;;;;25.45;17.55;;;;;;;20.49;48.16;99801.34;2126741;83;21253;-80
2021/03/31 09:44:51;;;;;;;23.45;16.60;;;;;;;20.34;50.01;99799.73;2126110;84;21284;-80
2021/03/31 09:47:52;;;;;;;24.87;16.40;;;;;;;20.45;50.19;99799.17;2125854;83;21155;-79
2021/03/31 09:50:53;;;;;;;17.57;14.80;;;;;;;20.56;48.75;99795.05;2126299;83;21261;-79
2021/03/31 09:53:54;;;;;;;22.80;13.88;;;;;;;20.58;47.24;99799.89;2126679;83;21261;-80
2021/03/31 09:56:55;;;;;;;20.40;12.30;;;;;;;20.51;48.70;99794.24;2126107;83;21142;-80
2021/03/31 09:59:56;;;;;;;21.52;15.93;;;;;;;20.60;47.94;99794.12;2127300;83;21178;-80
2021/03/31 10:02:58;;;;;;;19.20;13.75;;;;;;;20.61;48.37;99785.26;2126486;83;21272;-80
2021/03/31 10:06:00;;;;;;;22.05;13.60;;;;;;;20.84;48.85;99778.33;2125132;83;21135;-79
2021/03/31 10:09:03;;;;;;;27.60;14.55;;;;;;;20.80;48.59;99779.23;2124640;83;21328;-80
2021/03/31 10:12:04;;;;;;;21.87;14.60;;;;;;;20.90;47.88;99774.26;2125890;83;21241;-80
2021/03/31 10:15:05;;;;;;;17.02;14.00;;;;;;;21.09;47.37;99773.06;2125834;83;21114;-79
2021/03/31 10:18:06;;;;;;;16.95;13.22;;;;;;;21.24;48.09;99766.21;2125118;83;21357;-80
2021/03/31 10:21:07;;;;;;;16.07;12.37;;;;;;;21.40;47.62;99763.29;2126774;84;21142;-80
2021/03/31 10:24:09;;;;;;;13.88;9.78;;;;;;;21.43;47.11;99749.51;2126030;84;21261;-80
2021/03/31 10:27:10;;;;;;;14.25;9.48;;;;;;;21.55;44.55;99755.92;2125598;83;21297;-78
2021/03/31 10:30:11;;;;;;;15.65;9.88;;;;;;;21.57;46.48;99749.26;2082467;84;21710;-78
2021/03/31 10:33:12;;;;;;;14.00;10.40;;;;;;;21.78;46.83;99744.02;2083067;85;21281;-80
2021/03/31 10:36:13;;;;;;;15.85;9.83;;;;;;;21.90;45.25;99744.66;2060052;86;21282;-79
2021/03/31 10:39:39;;;;;;;14.50;9.40;;;;;;;21.79;44.91;99739.12;2060239;86;21288;-80
2021/03/31 10:49:15;;;;;;;18.23;10.13;;;;;;;21.80;45.50;99733.79;2054885;86;21312;-80
2021/03/31 10:52:18;;;;;;;12.88;9.83;;;;;;;21.91;44.91;99722.48;2119840;84;21321;-80
2021/03/31 10:55:19;;;;;;;26.27;9.90;;;;;;;22.02;44.48;99722.72;2122716;83;21527;-79
2021/03/31 10:58:20;;;;;;;12.30;9.80;;;;;;;22.05;44.60;99720.91;2123444;84;21256;-80
2021/03/31 11:01:21;;;;;;;14.58;9.45;;;;;;;22.28;44.98;99719.55;2123050;83;21789;-79
2021/03/31 11:04:22;;;;;;;24.70;9.63;;;;;;;22.47;44.13;99708.91;2123053;83;21312;-79
2021/03/31 11:07:23;;;;;;;13.45;7.85;;;;;;;22.55;44.57;99709.19;2124170;83;21126;-79
2021/03/31 11:10:24;;;;;;;12.43;8.03;;;;;;;22.75;43.55;99708.72;2084920;84;21202;-79
2021/03/31 11:13:26;;;;;;;11.90;8.65;;;;;;;22.77;42.82;99701.58;2084319;85;21676;-80
2021/03/31 11:16:27;;;;;;;11.78;8.35;;;;;;;22.62;40.59;99699.28;2084651;85;21151;-80
2021/03/31 11:19:47;;;;;;;101.92;13.75;;;;;;;22.60;43.03;99687.80;2045922;87;21204;-81
2021/03/31 11:26:03;;;;;;;14.23;7.35;;;;;;;22.59;41.05;99692.70;2121073;83;21633;-80
2021/03/31 11:29:04;;;;;;;12.53;8.03;;;;;;;22.52;41.14;99679.09;2121179;83;21203;-81
2021/03/31 11:32:06;;;;;;;13.03;8.63;;;;;;;22.29;40.99;99685.39;2120619;84;21285;-81
2021/03/31 11:35:07;;;;;;;12.45;8.38;;;;;;;21.91;42.06;99673.31;2120777;83;21138;-80
2021/03/31 11:38:08;;;;;;;12.58;8.58;;;;;;;21.81;42.83;99671.76;2120767;83;21162;-81
2021/03/31 11:41:09;;;;;;;15.90;8.35;;;;;;;21.86;43.21;99665.02;2120487;83;21289;-79
2021/03/31 11:44:10;;;;;;;14.58;7.80;;;;;;;22.02;43.56;99665.11;2120329;83;21281;-79
2021/03/31 11:47:11;;;;;;;11.22;7.35;;;;;;;22.24;41.48;99655.78;2120238;84;21248;-80
2021/03/31 11:50:12;;;;;;;9.55;6.72;;;;;;;22.27;41.86;99652.64;2119912;83;21286;-80
2021/03/31 11:53:13;;;;;;;13.53;7.30;;;;;;;22.41;42.19;99644.76;2120338;83;21147;-80
2021/03/31 11:56:14;;;;;;;10.50;7.90;;;;;;;22.61;42.00;99642.98;2119180;83;21516;-81
2021/03/31 11:59:15;;;;;;;12.88;7.87;;;;;;;22.77;41.08;99641.70;2119686;83;21147;-80
2021/03/31 12:02:17;;;;;;;10.85;7.22;;;;;;;22.73;40.90;99635.16;2120323;83;21283;-79
2021/03/31 12:05:18;;;;;;;13.43;7.30;;;;;;;22.67;40.98;99628.20;2118658;83;21174;-79
2021/03/31 12:08:20;;;;;;;9.63;5.92;;;;;;;22.78;41.29;99623.48;2118398;83;21317;-82
2021/03/31 12:11:21;;;;;;;8.10;6.35;;;;;;;22.95;41.27;99615.09;2118244;83;21270;-79
2021/03/31 12:14:22;;;;;;;10.25;7.28;;;;;;;22.98;40.11;99613.68;2118732;83;21119;-79
2021/03/31 12:17:23;;;;;;;10.43;6.83;;;;;;;22.81;40.63;99618.11;2120806;83;21989;-78
2021/03/31 12:20:24;;;;;;;12.00;6.78;;;;;;;22.77;40.74;99604.89;2124721;84;21264;-80
2021/03/31 12:23:25;;;;;;;12.25;6.47;;;;;;;22.73;40.91;99608.08;2083320;85;21163;-79
2021/03/31 12:26:26;;;;;;;13.78;7.87;;;;;;;22.63;40.14;99599.91;2083569;85;21281;-79
2021/03/31 12:29:28;;;;;;;62.33;10.85;;;;;;;22.67;39.53;99605.58;2084376;85;21337;-79
2021/03/31 12:32:29;;;;;;;8.45;6.97;;;;;;;22.58;39.89;99598.28;2059519;86;21162;-80
2021/03/31 12:35:31;;;;;;;9.65;7.53;;;;;;;22.59;39.76;99596.91;2059867;86;21619;-79
2021/03/31 12:38:32;;;;;;;11.95;8.13;;;;;;;22.62;40.87;99585.32;2058735;86;21194;-79
2021/03/31 12:41:34;;;;;;;9.08;7.20;;;;;;;22.72;39.76;99581.05;2059611;86;21305;-79
2021/03/31 12:44:35;;;;;;;10.53;6.95;;;;;;;22.69;40.01;99573.15;2059421;86;21300;-79
2021/03/31 12:47:37;;;;;;;12.68;7.58;;;;;;;22.73;40.16;99570.83;2059406;86;21348;-79
2021/03/31 12:50:39;;;;;;;12.95;7.17;;;;;;;22.76;40.34;99568.09;2059445;86;21205;-79
2021/03/31 12:53:43;;;;;;;11.63;7.28;;;;;;;22.81;39.93;99560.02;2059612;86;21276;-78
2021/03/31 12:56:44;;;;;;;10.82;8.33;;;;;;;22.80;38.15;99558.27;2059342;86;21305;-78
2021/03/31 12:59:45;;;;;;;9.20;7.33;;;;;;;22.63;38.30;99550.69;2060000;86;21154;-78
2021/03/31 13:02:47;;;;;;;12.23;6.85;;;;;;;22.69;38.88;99547.87;2059693;86;21224;-78
2021/03/31 13:05:48;;;;;;;14.70;7.03;;;;;;;22.87;39.09;99546.08;2059534;86;21523;-79
2021/03/31 13:08:52;;;;;;;12.93;8.40;;;;;;;23.06;38.95;99540.25;2059127;86;21316;-78
2021/03/31 13:11:52;;;;;;;11.50;7.17;;;;;;;23.12;39.13;99536.09;2059156;86;21312;-79
2021/03/31 13:25:05;;;;;;;14.10;8.68;;;;;;;22.76;39.06;99519.30;2049741;87;21317;-78
2021/03/31 13:31:26;;;;;;;13.75;8.20;;;;;;;22.83;36.91;99519.13;2060561;86;21281;-80
2021/03/31 13:34:29;;;;;;;15.37;8.17;;;;;;;22.77;36.04;99513.94;2060589;86;21171;-80
2021/03/31 13:37:33;;;;;;;16.25;10.40;;;;;;;22.69;36.89;99514.60;2060786;86;21711;-79
2021/03/31 13:40:33;;;;;;;16.55;9.38;;;;;;;22.62;37.10;99505.50;2123658;83;21185;-79
2021/03/31 13:43:34;;;;;;;18.05;11.63;;;;;;;22.64;37.33;99500.55;2083997;84;21187;-79
2021/03/31 13:46:44;;;;;;;14.23;10.65;;;;;;;22.61;37.24;99501.96;2059539;86;21630;-77
2021/03/31 13:49:44;;;;;;;66.37;11.38;;;;;;;22.58;38.42;99497.18;2123024;83;21631;-78
2021/03/31 13:52:44;;;;;;;14.15;8.68;;;;;;;22.65;37.78;99492.11;2123302;84;21276;-79
2021/03/31 13:55:46;;;;;;;15.43;8.53;;;;;;;22.70;36.63;99480.42;2123701;83;21571;-79
2021/03/31 13:58:47;;;;;;;11.40;7.58;;;;;;;22.59;37.21;99482.96;2123121;83;21324;-79
2021/03/31 14:01:48;;;;;;;11.90;6.87;;;;;;;22.53;36.81;99482.17;2123410;83;21268;-80
2021/03/31 14:04:49;;;;;;;11.28;7.65;;;;;;;22.56;37.28;99481.25;2123177;83;21433;-78
2021/03/31 14:07:51;;;;;;;11.08;7.15;;;;;;;22.42;36.38;99479.38;2084339;85;21559;-78
2021/03/31 14:10:53;;;;;;;9.33;6.62;;;;;;;22.14;37.10;99476.09;2049141;87;21196;-79
2021/03/31 14:13:54;;;;;;;8.95;6.10;;;;;;;21.88;36.99;99468.73;2060428;86;21630;-78
2021/03/31 14:16:59;;;;;;;15.08;6.60;;;;;;;21.70;37.44;99464.31;2060560;86;21174;-81
2021/03/31 14:20:05;;;;;;;11.03;7.42;;;;;;;21.57;38.05;99471.20;2060296;86;21745;-79
2021/03/31 14:23:03;;;;;;;11.55;6.45;;;;;;;21.48;37.90;99466.09;2060829;86;21204;-80